sensor_id;sensor_type;location;lat;lon;timestamp;P1;durP1;ratioP1;P2;durP2;ratioP2
9208;SDS011;4639;48.862;9.188;2024-03-22T00:01:05;283.40;;;263.40;;
9208;SDS011;4639;48.862;9.188;2024-03-22T00:03:30;280.15;;;260.30;;
9208;SDS011;4639;48.862;9.188;2024-03-22T00:05:56;257.05;;;239.18;;
9208;SDS011;4639;48.862;9.188;2024-03-22T00:08:22;249.00;;;231.77;;
9208;SDS011;4639;48.862;9.188;2024-03-22T00:10:47;245.98;;;229.35;;
9208;SDS011;4639;48.862;9.188;2024-03-22T00:13:13;251.63;;;234.75;;
9208;SDS011;4639;48.862;9.188;2024-03-22T00:15:39;230.00;;;215.02;;
9208;SDS011;4639;48.862;9.188;2024-03-22T00:18:04;241.38;;;225.10;;
9208;SDS011;4639;48.862;9.188;2024-03-22T00:20:30;241.10;;;224.73;;
9208;SDS011;4639;48.862;9.188;2024-03-22T00:22:56;252.38;;;235.80;;
9208;SDS011;4639;48.862;9.188;2024-03-22T00:25:21;254.02;;;237.38;;
9208;SDS011;4639;48.862;9.188;2024-03-22T00:27:47;247.75;;;231.50;;
9208;SDS011;4639;48.862;9.188;2024-03-22T00:30:12;256.40;;;239.63;;
9208;SDS011;4639;48.862;9.188;2024-03-22T00:32:40;235.35;;;219.30;;
9208;SDS011;4639;48.862;9.188;2024-03-22T00:35:06;220.50;;;205.43;;
9208;SDS011;4639;48.862;9.188;2024-03-22T00:37:31;236.80;;;221.00;;
9208;SDS011;4639;48.862;9.188;2024-03-22T00:39:57;239.63;;;223.52;;
9208;SDS011;4639;48.862;9.188;2024-03-22T00:42:22;253.07;;;236.20;;
9208;SDS011;4639;48.862;9.188;2024-03-22T00:44:48;255.15;;;238.10;;
9208;SDS011;4639;48.862;9.188;2024-03-22T00:47:14;302.13;;;281.83;;
9208;SDS011;4639;48.862;9.188;2024-03-22T00:49:39;357.08;;;332.63;;
9208;SDS011;4639;48.862;9.188;2024-03-22T00:52:05;333.08;;;310.05;;
9208;SDS011;4639;48.862;9.188;2024-03-22T00:54:30;343.10;;;320.08;;
9208;SDS011;4639;48.862;9.188;2024-03-22T00:56:56;328.75;;;306.42;;
9208;SDS011;4639;48.862;9.188;2024-03-22T00:59:21;341.45;;;318.00;;
9208;SDS011;4639;48.862;9.188;2024-03-22T01:01:47;335.48;;;313.23;;
9208;SDS011;4639;48.862;9.188;2024-03-22T01:04:13;334.13;;;312.55;;
9208;SDS011;4639;48.862;9.188;2024-03-22T01:06:39;314.65;;;293.48;;
9208;SDS011;4639;48.862;9.188;2024-03-22T01:09:05;351.75;;;327.50;;
9208;SDS011;4639;48.862;9.188;2024-03-22T01:11:31;317.17;;;296.75;;
9208;SDS011;4639;48.862;9.188;2024-03-22T01:13:56;288.58;;;269.60;;
9208;SDS011;4639;48.862;9.188;2024-03-22T01:16:22;309.30;;;289.15;;
9208;SDS011;4639;48.862;9.188;2024-03-22T01:18:48;337.98;;;315.33;;
9208;SDS011;4639;48.862;9.188;2024-03-22T01:21:13;327.83;;;305.63;;
9208;SDS011;4639;48.862;9.188;2024-03-22T01:23:39;321.25;;;299.15;;
9208;SDS011;4639;48.862;9.188;2024-03-22T01:26:04;313.85;;;292.83;;
9208;SDS011;4639;48.862;9.188;2024-03-22T01:28:30;340.40;;;317.33;;
9208;SDS011;4639;48.862;9.188;2024-03-22T01:30:55;331.90;;;309.55;;
9208;SDS011;4639;48.862;9.188;2024-03-22T01:33:21;297.45;;;277.50;;
9208;SDS011;4639;48.862;9.188;2024-03-22T01:35:46;313.13;;;291.98;;
9208;SDS011;4639;48.862;9.188;2024-03-22T01:38:12;319.50;;;297.10;;
9208;SDS011;4639;48.862;9.188;2024-03-22T01:40:37;317.50;;;296.25;;
9208;SDS011;4639;48.862;9.188;2024-03-22T01:43:03;323.45;;;301.35;;
9208;SDS011;4639;48.862;9.188;2024-03-22T01:45:31;306.67;;;285.77;;
9208;SDS011;4639;48.862;9.188;2024-03-22T01:47:58;316.48;;;294.85;;
9208;SDS011;4639;48.862;9.188;2024-03-22T01:50:24;320.23;;;298.13;;
9208;SDS011;4639;48.862;9.188;2024-03-22T01:52:50;339.48;;;316.75;;
9208;SDS011;4639;48.862;9.188;2024-03-22T01:55:16;335.67;;;312.80;;
9208;SDS011;4639;48.862;9.188;2024-03-22T01:57:42;344.00;;;320.33;;
9208;SDS011;4639;48.862;9.188;2024-03-22T02:00:08;318.75;;;296.95;;
9208;SDS011;4639;48.862;9.188;2024-03-22T02:02:35;338.48;;;314.80;;
9208;SDS011;4639;48.862;9.188;2024-03-22T02:05:11;352.98;;;328.98;;
9208;SDS011;4639;48.862;9.188;2024-03-22T02:07:41;293.05;;;272.52;;
9208;SDS011;4639;48.862;9.188;2024-03-22T02:10:07;299.05;;;278.33;;
9208;SDS011;4639;48.862;9.188;2024-03-22T02:12:35;313.27;;;291.80;;
9208;SDS011;4639;48.862;9.188;2024-03-22T02:15:02;292.98;;;272.52;;
9208;SDS011;4639;48.862;9.188;2024-03-22T02:17:28;291.48;;;271.60;;
9208;SDS011;4639;48.862;9.188;2024-03-22T02:19:53;315.42;;;293.60;;
9208;SDS011;4639;48.862;9.188;2024-03-22T02:22:19;291.40;;;271.83;;
9208;SDS011;4639;48.862;9.188;2024-03-22T02:24:44;305.05;;;284.65;;
9208;SDS011;4639;48.862;9.188;2024-03-22T02:27:10;337.70;;;313.88;;
9208;SDS011;4639;48.862;9.188;2024-03-22T02:29:35;327.55;;;304.88;;
9208;SDS011;4639;48.862;9.188;2024-03-22T02:32:01;294.20;;;274.08;;
9208;SDS011;4639;48.862;9.188;2024-03-22T02:34:28;281.25;;;262.27;;
9208;SDS011;4639;48.862;9.188;2024-03-22T02:36:54;284.75;;;265.23;;
9208;SDS011;4639;48.862;9.188;2024-03-22T02:39:19;297.35;;;277.15;;
9208;SDS011;4639;48.862;9.188;2024-03-22T02:41:45;291.27;;;271.13;;
9208;SDS011;4639;48.862;9.188;2024-03-22T02:44:10;285.83;;;266.52;;
9208;SDS011;4639;48.862;9.188;2024-03-22T02:46:36;292.52;;;272.35;;
9208;SDS011;4639;48.862;9.188;2024-03-22T02:49:01;309.00;;;288.15;;
9208;SDS011;4639;48.862;9.188;2024-03-22T02:51:27;293.02;;;273.13;;
9208;SDS011;4639;48.862;9.188;2024-03-22T02:53:52;309.65;;;287.58;;
9208;SDS011;4639;48.862;9.188;2024-03-22T02:56:18;315.65;;;292.73;;
9208;SDS011;4639;48.862;9.188;2024-03-22T02:58:43;302.67;;;280.88;;
9208;SDS011;4639;48.862;9.188;2024-03-22T03:01:09;314.60;;;291.88;;
9208;SDS011;4639;48.862;9.188;2024-03-22T03:03:35;307.17;;;285.05;;
9208;SDS011;4639;48.862;9.188;2024-03-22T03:06:00;334.38;;;310.27;;
9208;SDS011;4639;48.862;9.188;2024-03-22T03:08:26;294.23;;;273.65;;
9208;SDS011;4639;48.862;9.188;2024-03-22T03:10:51;320.75;;;297.52;;
9208;SDS011;4639;48.862;9.188;2024-03-22T03:13:17;315.55;;;293.27;;
9208;SDS011;4639;48.862;9.188;2024-03-22T03:15:43;303.00;;;280.85;;
9208;SDS011;4639;48.862;9.188;2024-03-22T03:18:08;310.13;;;287.55;;
9208;SDS011;4639;48.862;9.188;2024-03-22T03:20:34;320.65;;;297.98;;
9208;SDS011;4639;48.862;9.188;2024-03-22T03:23:00;297.73;;;276.83;;
9208;SDS011;4639;48.862;9.188;2024-03-22T03:25:26;315.38;;;293.45;;
9208;SDS011;4639;48.862;9.188;2024-03-22T03:27:52;309.23;;;287.23;;
9208;SDS011;4639;48.862;9.188;2024-03-22T03:30:17;310.88;;;288.63;;
9208;SDS011;4639;48.862;9.188;2024-03-22T03:32:43;312.63;;;290.35;;
9208;SDS011;4639;48.862;9.188;2024-03-22T03:35:09;301.25;;;279.63;;
9208;SDS011;4639;48.862;9.188;2024-03-22T03:37:35;294.88;;;274.05;;
9208;SDS011;4639;48.862;9.188;2024-03-22T03:40:00;280.45;;;260.63;;
9208;SDS011;4639;48.862;9.188;2024-03-22T03:42:26;295.42;;;274.77;;
9208;SDS011;4639;48.862;9.188;2024-03-22T03:44:52;249.70;;;232.43;;
9208;SDS011;4639;48.862;9.188;2024-03-22T03:47:17;245.85;;;228.60;;
9208;SDS011;4639;48.862;9.188;2024-03-22T03:49:44;258.02;;;240.25;;
9208;SDS011;4639;48.862;9.188;2024-03-22T03:52:10;281.08;;;261.20;;
9208;SDS011;4639;48.862;9.188;2024-03-22T03:54:36;285.63;;;265.83;;
9208;SDS011;4639;48.862;9.188;2024-03-22T03:57:04;274.20;;;255.00;;
9208;SDS011;4639;48.862;9.188;2024-03-22T03:59:30;282.10;;;262.33;;
9208;SDS011;4639;48.862;9.188;2024-03-22T04:01:55;270.95;;;252.48;;
9208;SDS011;4639;48.862;9.188;2024-03-22T04:04:21;269.45;;;250.88;;
9208;SDS011;4639;48.862;9.188;2024-03-22T04:06:47;270.23;;;251.43;;
9208;SDS011;4639;48.862;9.188;2024-03-22T04:09:13;299.20;;;278.30;;
9208;SDS011;4639;48.862;9.188;2024-03-22T04:11:38;277.20;;;257.75;;
9208;SDS011;4639;48.862;9.188;2024-03-22T04:14:07;269.55;;;250.82;;
9208;SDS011;4639;48.862;9.188;2024-03-22T04:16:32;288.45;;;268.60;;
9208;SDS011;4639;48.862;9.188;2024-03-22T04:19:01;252.30;;;234.70;;
9208;SDS011;4639;48.862;9.188;2024-03-22T04:21:26;273.20;;;254.35;;
9208;SDS011;4639;48.862;9.188;2024-03-22T04:23:52;293.55;;;273.42;;
9208;SDS011;4639;48.862;9.188;2024-03-22T04:26:17;270.92;;;252.20;;
9208;SDS011;4639;48.862;9.188;2024-03-22T04:28:43;264.27;;;245.60;;
9208;SDS011;4639;48.862;9.188;2024-03-22T04:31:09;290.15;;;269.90;;
9208;SDS011;4639;48.862;9.188;2024-03-22T04:33:35;265.17;;;246.90;;
9208;SDS011;4639;48.862;9.188;2024-03-22T04:36:01;259.02;;;240.82;;
9208;SDS011;4639;48.862;9.188;2024-03-22T04:38:28;245.50;;;228.60;;
9208;SDS011;4639;48.862;9.188;2024-03-22T04:40:55;233.00;;;216.93;;
9208;SDS011;4639;48.862;9.188;2024-03-22T04:43:21;214.77;;;200.00;;
9208;SDS011;4639;48.862;9.188;2024-03-22T04:45:50;246.70;;;229.23;;
9208;SDS011;4639;48.862;9.188;2024-03-22T04:48:22;256.88;;;238.73;;
9208;SDS011;4639;48.862;9.188;2024-03-22T04:50:49;253.00;;;235.45;;
9208;SDS011;4639;48.862;9.188;2024-03-22T04:53:16;225.98;;;210.48;;
9208;SDS011;4639;48.862;9.188;2024-03-22T04:55:43;259.15;;;241.30;;
9208;SDS011;4639;48.862;9.188;2024-03-22T04:58:16;248.35;;;231.25;;
9208;SDS011;4639;48.862;9.188;2024-03-22T05:00:43;231.88;;;216.23;;
9208;SDS011;4639;48.862;9.188;2024-03-22T05:03:09;243.63;;;227.27;;
9208;SDS011;4639;48.862;9.188;2024-03-22T05:05:35;240.82;;;224.25;;
9208;SDS011;4639;48.862;9.188;2024-03-22T05:08:01;230.98;;;215.48;;
9208;SDS011;4639;48.862;9.188;2024-03-22T05:10:28;228.52;;;212.90;;
9208;SDS011;4639;48.862;9.188;2024-03-22T05:12:54;216.90;;;202.20;;
9208;SDS011;4639;48.862;9.188;2024-03-22T05:15:20;227.45;;;212.13;;
9208;SDS011;4639;48.862;9.188;2024-03-22T05:17:46;230.02;;;214.20;;
9208;SDS011;4639;48.862;9.188;2024-03-22T05:20:11;220.48;;;205.73;;
9208;SDS011;4639;48.862;9.188;2024-03-22T05:22:37;250.82;;;233.82;;
9208;SDS011;4639;48.862;9.188;2024-03-22T05:25:03;236.93;;;221.10;;
9208;SDS011;4639;48.862;9.188;2024-03-22T05:27:30;231.60;;;215.50;;
9208;SDS011;4639;48.862;9.188;2024-03-22T05:29:57;219.63;;;204.38;;
9208;SDS011;4639;48.862;9.188;2024-03-22T05:32:23;230.23;;;214.48;;
9208;SDS011;4639;48.862;9.188;2024-03-22T05:34:48;235.95;;;220.00;;
9208;SDS011;4639;48.862;9.188;2024-03-22T05:37:14;233.13;;;217.32;;
9208;SDS011;4639;48.862;9.188;2024-03-22T05:39:40;221.27;;;206.43;;
9208;SDS011;4639;48.862;9.188;2024-03-22T05:42:07;253.63;;;236.52;;
9208;SDS011;4639;48.862;9.188;2024-03-22T05:44:33;235.35;;;219.18;;
9208;SDS011;4639;48.862;9.188;2024-03-22T05:46:58;230.60;;;214.48;;
9208;SDS011;4639;48.862;9.188;2024-03-22T05:49:25;219.45;;;204.10;;
9208;SDS011;4639;48.862;9.188;2024-03-22T05:51:50;220.40;;;205.32;;
9208;SDS011;4639;48.862;9.188;2024-03-22T05:54:16;225.15;;;209.93;;
9208;SDS011;4639;48.862;9.188;2024-03-22T05:56:42;233.93;;;218.05;;
9208;SDS011;4639;48.862;9.188;2024-03-22T05:59:07;231.88;;;215.85;;
9208;SDS011;4639;48.862;9.188;2024-03-22T06:01:33;219.27;;;204.48;;
9208;SDS011;4639;48.862;9.188;2024-03-22T06:03:58;228.75;;;213.07;;
9208;SDS011;4639;48.862;9.188;2024-03-22T06:06:25;258.25;;;240.25;;
9208;SDS011;4639;48.862;9.188;2024-03-22T06:08:54;231.95;;;215.32;;
9208;SDS011;4639;48.862;9.188;2024-03-22T06:11:21;247.30;;;230.18;;
9208;SDS011;4639;48.862;9.188;2024-03-22T06:13:47;246.43;;;228.77;;
9208;SDS011;4639;48.862;9.188;2024-03-22T06:16:13;237.85;;;221.40;;
9208;SDS011;4639;48.862;9.188;2024-03-22T06:18:39;245.27;;;228.00;;
9208;SDS011;4639;48.862;9.188;2024-03-22T06:21:05;225.80;;;209.98;;
9208;SDS011;4639;48.862;9.188;2024-03-22T06:23:40;228.70;;;213.10;;
9208;SDS011;4639;48.862;9.188;2024-03-22T06:26:09;249.77;;;232.95;;
9208;SDS011;4639;48.862;9.188;2024-03-22T06:28:34;246.77;;;230.02;;
9208;SDS011;4639;48.862;9.188;2024-03-22T06:31:01;250.90;;;233.60;;
9208;SDS011;4639;48.862;9.188;2024-03-22T06:33:26;303.25;;;283.45;;
9208;SDS011;4639;48.862;9.188;2024-03-22T06:35:52;309.73;;;289.58;;
9208;SDS011;4639;48.862;9.188;2024-03-22T06:38:17;312.40;;;291.33;;
9208;SDS011;4639;48.862;9.188;2024-03-22T06:40:43;327.50;;;305.40;;
9208;SDS011;4639;48.862;9.188;2024-03-22T06:43:09;306.55;;;285.67;;
9208;SDS011;4639;48.862;9.188;2024-03-22T06:45:35;318.23;;;296.75;;
9208;SDS011;4639;48.862;9.188;2024-03-22T06:48:01;296.75;;;276.45;;
9208;SDS011;4639;48.862;9.188;2024-03-22T06:50:27;307.88;;;287.30;;
9208;SDS011;4639;48.862;9.188;2024-03-22T06:52:53;298.77;;;277.63;;
9208;SDS011;4639;48.862;9.188;2024-03-22T06:55:22;300.25;;;278.75;;
9208;SDS011;4639;48.862;9.188;2024-03-22T06:57:48;300.00;;;278.00;;
9208;SDS011;4639;48.862;9.188;2024-03-22T07:00:14;315.63;;;292.50;;
9208;SDS011;4639;48.862;9.188;2024-03-22T07:02:41;301.95;;;280.77;;
9208;SDS011;4639;48.862;9.188;2024-03-22T07:05:09;297.33;;;276.83;;
9208;SDS011;4639;48.862;9.188;2024-03-22T07:07:36;337.95;;;313.52;;
9208;SDS011;4639;48.862;9.188;2024-03-22T07:10:02;299.58;;;278.67;;
9208;SDS011;4639;48.862;9.188;2024-03-22T07:12:30;366.00;;;337.73;;
9208;SDS011;4639;48.862;9.188;2024-03-22T07:14:57;367.92;;;340.67;;
9208;SDS011;4639;48.862;9.188;2024-03-22T07:17:24;304.98;;;283.25;;
9208;SDS011;4639;48.862;9.188;2024-03-22T07:19:50;297.88;;;276.88;;
9208;SDS011;4639;48.862;9.188;2024-03-22T07:22:17;293.10;;;272.45;;
9208;SDS011;4639;48.862;9.188;2024-03-22T07:24:43;246.55;;;228.73;;
9208;SDS011;4639;48.862;9.188;2024-03-22T07:27:08;228.15;;;212.25;;
9208;SDS011;4639;48.862;9.188;2024-03-22T07:29:34;225.85;;;209.80;;
9208;SDS011;4639;48.862;9.188;2024-03-22T07:32:00;276.17;;;257.20;;
9208;SDS011;4639;48.862;9.188;2024-03-22T07:34:25;322.77;;;301.35;;
9208;SDS011;4639;48.862;9.188;2024-03-22T07:36:51;316.75;;;294.73;;
9208;SDS011;4639;48.862;9.188;2024-03-22T07:39:17;329.20;;;306.08;;
9208;SDS011;4639;48.862;9.188;2024-03-22T07:41:42;292.45;;;272.65;;
9208;SDS011;4639;48.862;9.188;2024-03-22T07:44:08;275.77;;;256.58;;
9208;SDS011;4639;48.862;9.188;2024-03-22T07:46:33;294.73;;;274.77;;
9208;SDS011;4639;48.862;9.188;2024-03-22T07:48:59;303.50;;;283.45;;
9208;SDS011;4639;48.862;9.188;2024-03-22T07:51:25;268.85;;;250.18;;
9208;SDS011;4639;48.862;9.188;2024-03-22T07:53:51;298.08;;;276.60;;
9208;SDS011;4639;48.862;9.188;2024-03-22T07:56:17;340.35;;;314.80;;
9208;SDS011;4639;48.862;9.188;2024-03-22T07:58:42;293.15;;;272.65;;
9208;SDS011;4639;48.862;9.188;2024-03-22T08:01:08;329.92;;;307.63;;
9208;SDS011;4639;48.862;9.188;2024-03-22T08:03:34;334.25;;;312.00;;
9208;SDS011;4639;48.862;9.188;2024-03-22T08:06:00;337.20;;;315.50;;
9208;SDS011;4639;48.862;9.188;2024-03-22T08:08:25;325.13;;;303.20;;
9208;SDS011;4639;48.862;9.188;2024-03-22T08:10:51;327.45;;;305.17;;
9208;SDS011;4639;48.862;9.188;2024-03-22T08:13:16;350.58;;;326.42;;
9208;SDS011;4639;48.862;9.188;2024-03-22T08:15:43;314.55;;;292.73;;
9208;SDS011;4639;48.862;9.188;2024-03-22T08:18:10;336.33;;;313.83;;
9208;SDS011;4639;48.862;9.188;2024-03-22T08:20:36;365.98;;;341.48;;
9208;SDS011;4639;48.862;9.188;2024-03-22T08:23:03;385.70;;;358.35;;
9208;SDS011;4639;48.862;9.188;2024-03-22T08:25:29;447.42;;;413.85;;
9208;SDS011;4639;48.862;9.188;2024-03-22T08:27:55;498.92;;;461.48;;
9208;SDS011;4639;48.862;9.188;2024-03-22T08:30:21;507.88;;;466.33;;
9208;SDS011;4639;48.862;9.188;2024-03-22T08:32:47;525.20;;;481.27;;
9208;SDS011;4639;48.862;9.188;2024-03-22T08:35:13;551.25;;;502.85;;
9208;SDS011;4639;48.862;9.188;2024-03-22T08:37:39;507.70;;;462.95;;
9208;SDS011;4639;48.862;9.188;2024-03-22T08:40:04;616.70;;;563.53;;
9208;SDS011;4639;48.862;9.188;2024-03-22T08:42:30;656.63;;;603.88;;
9208;SDS011;4639;48.862;9.188;2024-03-22T08:44:57;649.13;;;595.50;;
9208;SDS011;4639;48.862;9.188;2024-03-22T08:47:22;631.20;;;581.60;;
9208;SDS011;4639;48.862;9.188;2024-03-22T08:49:48;630.50;;;580.42;;
9208;SDS011;4639;48.862;9.188;2024-03-22T08:52:14;612.63;;;565.10;;
9208;SDS011;4639;48.862;9.188;2024-03-22T08:54:40;581.03;;;534.72;;
9208;SDS011;4639;48.862;9.188;2024-03-22T08:57:05;594.60;;;549.90;;
9208;SDS011;4639;48.862;9.188;2024-03-22T08:59:31;523.08;;;483.35;;
9208;SDS011;4639;48.862;9.188;2024-03-22T09:01:57;573.53;;;531.58;;
9208;SDS011;4639;48.862;9.188;2024-03-22T09:04:24;494.67;;;458.90;;
9208;SDS011;4639;48.862;9.188;2024-03-22T09:06:50;531.00;;;491.90;;
9208;SDS011;4639;48.862;9.188;2024-03-22T09:09:15;548.00;;;507.27;;
9208;SDS011;4639;48.862;9.188;2024-03-22T09:11:41;527.85;;;488.83;;
9208;SDS011;4639;48.862;9.188;2024-03-22T09:14:07;595.03;;;548.55;;
9208;SDS011;4639;48.862;9.188;2024-03-22T09:16:33;621.20;;;569.83;;
9208;SDS011;4639;48.862;9.188;2024-03-22T09:18:58;568.90;;;526.10;;
9208;SDS011;4639;48.862;9.188;2024-03-22T09:21:24;558.50;;;516.97;;
9208;SDS011;4639;48.862;9.188;2024-03-22T09:23:50;598.05;;;550.50;;
9208;SDS011;4639;48.862;9.188;2024-03-22T09:26:16;612.10;;;563.75;;
9208;SDS011;4639;48.862;9.188;2024-03-22T09:28:41;647.00;;;595.42;;
9208;SDS011;4639;48.862;9.188;2024-03-22T09:31:07;609.70;;;558.50;;
9208;SDS011;4639;48.862;9.188;2024-03-22T09:33:33;549.00;;;503.98;;
9208;SDS011;4639;48.862;9.188;2024-03-22T09:35:59;579.60;;;531.58;;
9208;SDS011;4639;48.862;9.188;2024-03-22T09:38:25;555.10;;;511.83;;
9208;SDS011;4639;48.862;9.188;2024-03-22T09:40:50;523.90;;;479.67;;
9208;SDS011;4639;48.862;9.188;2024-03-22T09:43:20;479.85;;;439.70;;
9208;SDS011;4639;48.862;9.188;2024-03-22T09:45:46;465.88;;;427.77;;
9208;SDS011;4639;48.862;9.188;2024-03-22T09:48:19;336.05;;;310.50;;
9208;SDS011;4639;48.862;9.188;2024-03-22T09:50:47;395.75;;;363.48;;
9208;SDS011;4639;48.862;9.188;2024-03-22T09:53:18;347.27;;;320.63;;
9208;SDS011;4639;48.862;9.188;2024-03-22T09:55:46;401.08;;;368.45;;
9208;SDS011;4639;48.862;9.188;2024-03-22T09:58:13;332.42;;;307.52;;
9208;SDS011;4639;48.862;9.188;2024-03-22T10:00:39;354.17;;;327.13;;
9208;SDS011;4639;48.862;9.188;2024-03-22T10:03:05;383.65;;;351.65;;
9208;SDS011;4639;48.862;9.188;2024-03-22T10:05:32;392.15;;;359.20;;
9208;SDS011;4639;48.862;9.188;2024-03-22T10:08:01;468.27;;;426.17;;
9208;SDS011;4639;48.862;9.188;2024-03-22T10:10:27;463.38;;;422.95;;
9208;SDS011;4639;48.862;9.188;2024-03-22T10:12:53;431.02;;;394.35;;
9208;SDS011;4639;48.862;9.188;2024-03-22T10:15:23;408.60;;;374.40;;
9208;SDS011;4639;48.862;9.188;2024-03-22T10:17:49;412.73;;;377.73;;
9208;SDS011;4639;48.862;9.188;2024-03-22T10:20:14;403.00;;;369.48;;
9208;SDS011;4639;48.862;9.188;2024-03-22T10:22:43;387.42;;;354.55;;
9208;SDS011;4639;48.862;9.188;2024-03-22T10:25:23;453.33;;;413.95;;
9208;SDS011;4639;48.862;9.188;2024-03-22T10:27:48;430.77;;;392.17;;
9208;SDS011;4639;48.862;9.188;2024-03-22T10:30:15;440.48;;;400.95;;
9208;SDS011;4639;48.862;9.188;2024-03-22T10:32:42;470.60;;;427.40;;
9208;SDS011;4639;48.862;9.188;2024-03-22T10:35:08;394.80;;;359.75;;
9208;SDS011;4639;48.862;9.188;2024-03-22T10:37:38;341.27;;;313.92;;
9208;SDS011;4639;48.862;9.188;2024-03-22T10:40:04;316.30;;;291.23;;
9208;SDS011;4639;48.862;9.188;2024-03-22T10:42:34;435.42;;;396.80;;
9208;SDS011;4639;48.862;9.188;2024-03-22T10:45:03;381.02;;;345.85;;
9208;SDS011;4639;48.862;9.188;2024-03-22T10:47:30;311.92;;;288.00;;
9208;SDS011;4639;48.862;9.188;2024-03-22T10:50:06;268.10;;;248.32;;
9208;SDS011;4639;48.862;9.188;2024-03-22T10:52:45;322.40;;;297.17;;
9208;SDS011;4639;48.862;9.188;2024-03-22T10:55:18;291.40;;;270.75;;
9208;SDS011;4639;48.862;9.188;2024-03-22T10:57:58;233.52;;;217.82;;
9208;SDS011;4639;48.862;9.188;2024-03-22T11:00:27;277.88;;;257.27;;
9208;SDS011;4639;48.862;9.188;2024-03-22T11:02:54;322.45;;;297.60;;
9208;SDS011;4639;48.862;9.188;2024-03-22T11:05:20;304.85;;;281.48;;
9208;SDS011;4639;48.862;9.188;2024-03-22T11:07:46;351.85;;;323.38;;
9208;SDS011;4639;48.862;9.188;2024-03-22T11:10:13;272.50;;;249.25;;
9208;SDS011;4639;48.862;9.188;2024-03-22T11:12:41;340.25;;;309.88;;
9208;SDS011;4639;48.862;9.188;2024-03-22T11:15:10;281.52;;;256.58;;
9208;SDS011;4639;48.862;9.188;2024-03-22T11:17:37;368.60;;;336.67;;
9208;SDS011;4639;48.862;9.188;2024-03-22T11:20:05;451.27;;;409.27;;
9208;SDS011;4639;48.862;9.188;2024-03-22T11:22:34;275.58;;;256.33;;
9208;SDS011;4639;48.862;9.188;2024-03-22T11:24:59;260.40;;;241.65;;
9208;SDS011;4639;48.862;9.188;2024-03-22T11:27:25;240.48;;;223.02;;
9208;SDS011;4639;48.862;9.188;2024-03-22T11:29:53;252.10;;;233.10;;
9208;SDS011;4639;48.862;9.188;2024-03-22T11:32:19;279.80;;;261.13;;
9208;SDS011;4639;48.862;9.188;2024-03-22T11:34:45;253.55;;;236.50;;
9208;SDS011;4639;48.862;9.188;2024-03-22T11:37:12;267.40;;;248.82;;
9208;SDS011;4639;48.862;9.188;2024-03-22T11:39:41;253.32;;;235.65;;
9208;SDS011;4639;48.862;9.188;2024-03-22T11:42:06;316.63;;;294.83;;
9208;SDS011;4639;48.862;9.188;2024-03-22T11:44:37;449.02;;;410.77;;
9208;SDS011;4639;48.862;9.188;2024-03-22T11:47:07;257.25;;;240.70;;
9208;SDS011;4639;48.862;9.188;2024-03-22T11:49:33;284.67;;;265.95;;
9208;SDS011;4639;48.862;9.188;2024-03-22T11:52:03;260.48;;;240.38;;
9208;SDS011;4639;48.862;9.188;2024-03-22T11:54:28;318.55;;;295.45;;
9208;SDS011;4639;48.862;9.188;2024-03-22T11:56:55;254.63;;;238.30;;
9208;SDS011;4639;48.862;9.188;2024-03-22T11:59:24;319.30;;;295.00;;
9208;SDS011;4639;48.862;9.188;2024-03-22T12:01:49;256.83;;;238.52;;
9208;SDS011;4639;48.862;9.188;2024-03-22T12:04:15;244.98;;;228.68;;
9208;SDS011;4639;48.862;9.188;2024-03-22T12:06:44;270.08;;;252.27;;
9208;SDS011;4639;48.862;9.188;2024-03-22T12:09:11;258.95;;;240.48;;
9208;SDS011;4639;48.862;9.188;2024-03-22T12:11:39;252.15;;;235.55;;
9208;SDS011;4639;48.862;9.188;2024-03-22T12:14:05;267.00;;;249.27;;
9208;SDS011;4639;48.862;9.188;2024-03-22T12:16:30;263.10;;;244.70;;
9208;SDS011;4639;48.862;9.188;2024-03-22T12:18:57;289.67;;;270.77;;
9208;SDS011;4639;48.862;9.188;2024-03-22T12:21:26;289.90;;;270.10;;
9208;SDS011;4639;48.862;9.188;2024-03-22T12:23:51;267.50;;;249.05;;
9208;SDS011;4639;48.862;9.188;2024-03-22T12:26:17;286.52;;;266.23;;
9208;SDS011;4639;48.862;9.188;2024-03-22T12:28:43;271.33;;;251.40;;
9208;SDS011;4639;48.862;9.188;2024-03-22T12:31:11;280.15;;;261.27;;
9208;SDS011;4639;48.862;9.188;2024-03-22T12:33:37;268.02;;;249.30;;
9208;SDS011;4639;48.862;9.188;2024-03-22T12:36:03;246.32;;;228.40;;
9208;SDS011;4639;48.862;9.188;2024-03-22T12:38:29;249.90;;;232.55;;
9208;SDS011;4639;48.862;9.188;2024-03-22T12:40:55;287.98;;;266.55;;
9208;SDS011;4639;48.862;9.188;2024-03-22T12:43:21;261.77;;;243.68;;
9208;SDS011;4639;48.862;9.188;2024-03-22T12:45:46;398.27;;;367.38;;
9208;SDS011;4639;48.862;9.188;2024-03-22T12:48:12;265.92;;;248.27;;
9208;SDS011;4639;48.862;9.188;2024-03-22T12:50:40;233.30;;;218.60;;
9208;SDS011;4639;48.862;9.188;2024-03-22T12:53:06;243.77;;;227.07;;
9208;SDS011;4639;48.862;9.188;2024-03-22T12:55:32;248.55;;;232.45;;
9208;SDS011;4639;48.862;9.188;2024-03-22T12:58:00;238.00;;;222.18;;
9208;SDS011;4639;48.862;9.188;2024-03-22T13:00:26;272.52;;;253.52;;
9208;SDS011;4639;48.862;9.188;2024-03-22T13:02:51;272.95;;;253.60;;
9208;SDS011;4639;48.862;9.188;2024-03-22T13:05:20;246.55;;;230.30;;
9208;SDS011;4639;48.862;9.188;2024-03-22T13:07:45;241.52;;;225.55;;
9208;SDS011;4639;48.862;9.188;2024-03-22T13:10:11;251.73;;;234.65;;
9208;SDS011;4639;48.862;9.188;2024-03-22T13:12:37;252.82;;;236.25;;
9208;SDS011;4639;48.862;9.188;2024-03-22T13:15:02;269.52;;;252.23;;
9208;SDS011;4639;48.862;9.188;2024-03-22T13:17:29;274.67;;;256.75;;
9208;SDS011;4639;48.862;9.188;2024-03-22T13:19:57;270.52;;;252.52;;
9208;SDS011;4639;48.862;9.188;2024-03-22T13:22:23;272.83;;;255.07;;
9208;SDS011;4639;48.862;9.188;2024-03-22T13:24:48;276.42;;;257.88;;
9208;SDS011;4639;48.862;9.188;2024-03-22T13:27:15;265.40;;;248.57;;
9208;SDS011;4639;48.862;9.188;2024-03-22T13:29:41;263.58;;;245.85;;
9208;SDS011;4639;48.862;9.188;2024-03-22T13:32:07;274.02;;;255.73;;
9208;SDS011;4639;48.862;9.188;2024-03-22T13:34:36;271.98;;;251.27;;
9208;SDS011;4639;48.862;9.188;2024-03-22T13:37:02;288.88;;;267.58;;
9208;SDS011;4639;48.862;9.188;2024-03-22T13:39:28;270.23;;;251.68;;
9208;SDS011;4639;48.862;9.188;2024-03-22T13:41:56;262.23;;;242.93;;
9208;SDS011;4639;48.862;9.188;2024-03-22T13:44:22;283.35;;;264.73;;
9208;SDS011;4639;48.862;9.188;2024-03-22T13:46:51;272.00;;;252.93;;
9208;SDS011;4639;48.862;9.188;2024-03-22T13:49:17;254.80;;;236.27;;
9208;SDS011;4639;48.862;9.188;2024-03-22T13:51:46;255.65;;;237.35;;
9208;SDS011;4639;48.862;9.188;2024-03-22T13:54:13;273.38;;;253.57;;
9208;SDS011;4639;48.862;9.188;2024-03-22T13:56:38;255.40;;;236.40;;
9208;SDS011;4639;48.862;9.188;2024-03-22T13:59:04;267.52;;;248.40;;
9208;SDS011;4639;48.862;9.188;2024-03-22T14:01:31;265.55;;;247.57;;
9208;SDS011;4639;48.862;9.188;2024-03-22T14:03:57;266.17;;;246.30;;
9208;SDS011;4639;48.862;9.188;2024-03-22T14:06:22;262.50;;;243.45;;
9208;SDS011;4639;48.862;9.188;2024-03-22T14:08:48;261.13;;;242.30;;
9208;SDS011;4639;48.862;9.188;2024-03-22T14:11:13;291.08;;;269.67;;
9208;SDS011;4639;48.862;9.188;2024-03-22T14:13:39;267.33;;;247.27;;
9208;SDS011;4639;48.862;9.188;2024-03-22T14:16:04;383.13;;;353.15;;